• Join FlightAware (Why Join?)
  • Login
  • US Flag 
05:59PM EDT


 

Airport Tracker/Info


-or-


 

Live Flight TrackerFlight Track Log ✈ TAM3541 ✈ 09-Jul-2013 ✈ SBEG / MAO - SBBR / BSB

Flight Track Log - Related Links

Times and Time Zones

All times are in EDT time to prevent confusion due to time zone crossing. See the TAM3541 flight status page for this flight to view local times or setup timezone preferences in your user account.

Time Position Orientation Groundspeed Altitude Reporting Facility
EDT Latitude Longitude Course Direction KTS MPH feet Rate Location/Type
04:46PM -4.6484 -58.5847 138° Southeast  Level Estimated
04:47PM -4.7430 -58.4984 138° Southeast  Level Estimated
04:48PM -4.8376 -58.4120 138° Southeast  Level Estimated
04:49PM -4.9322 -58.3256 138° Southeast  Level Estimated
04:50PM -5.0268 -58.2391 138° Southeast  Level Estimated
04:51PM -5.1213 -58.1527 138° Southeast  Level Estimated
04:52PM -5.2159 -58.0662 138° Southeast  Level Estimated
04:53PM -5.3104 -57.9797 138° Southeast  Level Estimated
04:54PM -5.4049 -57.8931 138° Southeast  Level Estimated
04:55PM -5.4995 -57.8066 138° Southeast  Level Estimated
04:56PM -5.5940 -57.7200 138° Southeast  Level Estimated
04:57PM -5.6884 -57.6334 138° Southeast  Level Estimated
04:58PM -5.7829 -57.5467 138° Southeast  Level Estimated
04:59PM -5.8774 -57.4600 138° Southeast  Level Estimated
05:00PM -5.9718 -57.3733 138° Southeast  Level Estimated
05:01PM -6.0663 -57.2866 138° Southeast  Level Estimated
05:02PM -6.1607 -57.1998 138° Southeast  Level Estimated
05:03PM -6.2551 -57.1130 138° Southeast  Level Estimated
05:04PM -6.3495 -57.0262 138° Southeast  Level Estimated
05:05PM -6.4439 -56.9393 138° Southeast  Level Estimated
05:06PM -6.5383 -56.8524 138° Southeast  Level Estimated
05:07PM -6.6326 -56.7655 138° Southeast  Level Estimated
05:08PM -6.7270 -56.6785 138° Southeast  Level Estimated
05:09PM -6.8213 -56.5915 138° Southeast  Level Estimated
05:10PM -6.9156 -56.5045 138° Southeast  Level Estimated
05:11PM -7.0099 -56.4175 137° Southeast  Level Estimated
05:12PM -7.1041 -56.3304 137° Southeast  Level Estimated
05:13PM -7.1984 -56.2432 137° Southeast  Level Estimated
05:14PM -7.2927 -56.1561 137° Southeast  Level Estimated
05:15PM -7.3869 -56.0689 137° Southeast  Level Estimated
05:16PM -7.4811 -55.9816 137° Southeast  Level Estimated
05:17PM -7.5753 -55.8943 137° Southeast  Level Estimated
05:18PM -7.6694 -55.8070 137° Southeast  Level Estimated
05:19PM -7.7636 -55.7197 137° Southeast  Level Estimated
05:20PM -7.8577 -55.6323 137° Southeast  Level Estimated
05:21PM -7.9519 -55.5448 137° Southeast  Level Estimated
05:22PM -8.0460 -55.4573 137° Southeast  Level Estimated
05:23PM -8.1400 -55.3698 137° Southeast  Level Estimated
05:24PM -8.2341 -55.2822 137° Southeast  Level Estimated
05:25PM -8.3281 -55.1946 137° Southeast  Level Estimated
05:26PM -8.4222 -55.1070 137° Southeast  Level Estimated
05:27PM -8.5162 -55.0193 137° Southeast  Level Estimated
05:28PM -8.6102 -54.9316 137° Southeast  Level Estimated
05:29PM -8.7042 -54.8438 137° Southeast  Level Estimated
05:30PM -8.7981 -54.7560 137° Southeast  Level Estimated
05:31PM -8.8920 -54.6681 137° Southeast  Level Estimated
05:32PM -8.9859 -54.5802 137° Southeast  Level Estimated
05:33PM -9.0798 -54.4923 137° Southeast  Level Estimated
05:34PM -9.1737 -54.4043 137° Southeast  Level Estimated
05:35PM -9.2675 -54.3162 137° Southeast  Level Estimated
05:36PM -9.3614 -54.2281 137° Southeast  Level Estimated
05:37PM -9.4551 -54.1400 137° Southeast  Level Estimated
05:38PM -9.5489 -54.0518 137° Southeast  Level Estimated
05:39PM -9.6427 -53.9636 137° Southeast  Level Estimated
05:40PM -9.7364 -53.8753 137° Southeast  Level Estimated
05:41PM -9.8301 -53.7870 137° Southeast  Level Estimated
05:42PM -9.9238 -53.6986 137° Southeast  Level Estimated
05:43PM -10.0175 -53.6102 137° Southeast  Level Estimated
05:44PM -10.1111 -53.5217 137° Southeast  Level Estimated
05:45PM -10.2047 -53.4331 137° Southeast  Level Estimated
05:46PM -10.2983 -53.3445 137° Southeast  Level Estimated
05:47PM -10.3919 -53.2559 137° Southeast  Level Estimated
05:48PM -10.4854 -53.1672 137° Southeast  Level Estimated
05:49PM -10.5790 -53.0784 137° Southeast  Level Estimated
05:50PM -10.6725 -52.9897 137° Southeast  Level Estimated
05:51PM -10.7659 -52.9008 137° Southeast  Level Estimated
05:52PM -10.8594 -52.8119 137° Southeast  Level Estimated
05:53PM -10.9528 -52.7229 137° Southeast  Level Estimated
05:54PM -11.0462 -52.6339 137° Southeast  Level Estimated
05:55PM -11.1396 -52.5448 137° Southeast  Level Estimated
05:56PM -11.2329 -52.4557 137° Southeast  Level Estimated
05:57PM -11.3262 -52.3665 137° Southeast  Level Estimated
05:58PM -11.4195 -52.2772 137° Southeast  Level Estimated
05:59PM -11.5127 -52.1879 137° Southeast  Level Estimated
06:00PM -11.6060 -52.0985 137° Southeast  Level Estimated
06:01PM -11.6992 -52.0091 137° Southeast  Level Estimated
06:02PM -11.7924 -51.9196 137° Southeast  Level Estimated
06:03PM -11.8855 -51.8301 137° Southeast  Level Estimated
06:04PM -11.9786 -51.7405 137° Southeast  Level Estimated
06:05PM -12.0717 -51.6508 137° Southeast  Level Estimated
06:06PM -12.1648 -51.5610 137° Southeast  Level Estimated
06:07PM -12.2578 -51.4712 137° Southeast  Level Estimated
06:08PM -12.3509 -51.3814 137° Southeast  Level Estimated
06:09PM -12.4438 -51.2915 137° Southeast  Level Estimated
06:10PM -12.5368 -51.2015 137° Southeast  Level Estimated
06:11PM -12.6297 -51.1114 137° Southeast  Level Estimated
06:12PM -12.7226 -51.0213 137° Southeast  Level Estimated
06:13PM -12.8154 -50.9311 137° Southeast  Level Estimated
06:14PM -12.9083 -50.8408 137° Southeast  Level Estimated
06:15PM -13.0011 -50.7505 137° Southeast  Level Estimated
06:16PM -13.0938 -50.6601 137° Southeast  Level Estimated
06:17PM -13.1866 -50.5697 136° Southeast  Level Estimated
06:18PM -13.2793 -50.4791 136° Southeast  Level Estimated
06:19PM -13.3719 -50.3885 136° Southeast  Level Estimated
06:20PM -13.4646 -50.2979 136° Southeast  Level Estimated
06:21PM -13.5572 -50.2071 136° Southeast  Level Estimated
06:22PM -13.6497 -50.1163 136° Southeast  Level Estimated
06:23PM -13.7423 -50.0254 136° Southeast  Level Estimated
06:24PM -13.8348 -49.9345 136° Southeast  Level Estimated
06:25PM -13.9273 -49.8435 136° Southeast  Level Estimated
06:26PM -14.0197 -49.7524 136° Southeast  Level Estimated
06:27PM -14.1121 -49.6612 136° Southeast  Level Estimated
06:28PM -14.2045 -49.5700 136° Southeast  Level Estimated
06:29PM -14.2968 -49.4786 136° Southeast  Level Estimated
06:30PM -14.3891 -49.3872 136° Southeast  Level Estimated
06:31PM -14.4814 -49.2958 136° Southeast  Level Estimated
06:32PM -14.5736 -49.2042 136° Southeast  Level Estimated
06:33PM -14.6658 -49.1126 136° Southeast  Level Estimated
06:34PM -14.7579 -49.0209 136° Southeast  Level Estimated
06:35PM -14.8501 -48.9291 136° Southeast  Level Estimated
06:36PM -14.9422 -48.8373 136° Southeast  Level Estimated
06:37PM -15.0342 -48.7454 136° Southeast  Level Estimated
06:38PM -15.1262 -48.6534 136° Southeast  Level Estimated
06:39PM -15.2182 -48.5613 136° Southeast  Level Estimated
06:40PM -15.3101 -48.4691 136° Southeast  Level Estimated
06:41PM -15.4020 -48.3768 136° Southeast  Level Estimated
06:42PM -15.4939 -48.2845 136° Southeast  Level Estimated
06:43PM -15.5857 -48.1921 136° Southeast  Level Estimated
06:44PM -15.6775 -48.0996 136° Southeast  Level Estimated
06:45PM -15.7692 -48.0070 136° Southeast  Level Estimated
06:46PM -15.8609 -47.9143 136° Southeast  Level Estimated
06:47PM -15.8626 -47.9127 136° Southeast  Level Estimated
06:48PM -15.8626 -47.9127 128° Southeast  Level Estimated
06:49PM -15.8626 -47.9127 128° Southeast  Level Estimated
06:50PM -15.8626 -47.9127 128° Southeast  Level Estimated
06:51PM -15.8626 -47.9127 128° Southeast  Level Estimated
06:52PM -15.8626 -47.9127 128° Southeast  Level Estimated
06:53PM -15.8626 -47.9127 128° Southeast  Level Estimated
06:54PM -15.8626 -47.9127 128° Southeast  Level Estimated
06:55PM -15.8626 -47.9127 128° Southeast  Level Estimated
06:56PM -15.8626 -47.9127 128° Southeast  Level Estimated
06:57PM -15.8626 -47.9127 128° Southeast  Level Estimated
06:58PM -15.8626 -47.9127 128° Southeast  Level Estimated
06:59PM -15.8626 -47.9127 128° Southeast  Level Estimated
07:00PM -15.8626 -47.9127 128° Southeast  Level Estimated
07:01PM -15.8626 -47.9127 128° Southeast  Level Estimated
07:02PM -15.8626 -47.9127 128° Southeast  Level Estimated